Time;durP1;ratioP1;P1;durP2;ratioP2;P2;SDS_P1;SDS_P2;PMS_P1;PMS_P2;Temp;Humidity;BMP_temperature;BMP_pressure;BME280_temperature;BME280_humidity;BME280_pressure;Samples;Min_cycle;Max_cycle;Signal;HPM_P1;HPM_P2
2021/04/04 00:00:08;;;;;;;3.93;2.50;;;;;;;4.98;52.09;97316.84;4935058;29;20540;-73
2021/04/04 00:02:33;;;;;;;2.90;2.30;;;;;;;5.01;52.28;97319.06;4934414;29;20178;-72
2021/04/04 00:04:59;;;;;;;3.43;2.40;;;;;;;5.01;52.09;97308.66;4935120;29;20281;-73
2021/04/04 00:07:24;;;;;;;5.80;2.50;;;;;;;5.14;51.97;97315.84;4934883;29;20250;-69
2021/04/04 00:09:49;;;;;;;4.23;2.47;;;;;;;5.15;51.70;97317.47;4934648;29;20665;-73
2021/04/04 00:12:15;;;;;;;4.80;2.43;;;;;;;5.26;51.33;97321.41;4935124;29;20262;-73
2021/04/04 00:14:41;;;;;;;3.80;2.27;;;;;;;5.25;51.31;97320.59;4934406;29;20257;-73
2021/04/04 00:17:07;;;;;;;4.60;2.10;;;;;;;5.02;52.51;97317.28;4934722;29;20200;-73
2021/04/04 00:19:33;;;;;;;4.90;2.20;;;;;;;4.89;52.13;97310.13;4934405;29;20178;-70
2021/04/04 00:21:58;;;;;;;6.00;2.53;;;;;;;5.17;51.68;97312.91;4935352;29;20534;-73
2021/04/04 00:24:24;;;;;;;4.13;2.50;;;;;;;5.15;51.47;97311.47;4917835;29;20681;-71
2021/04/04 00:26:49;;;;;;;3.27;2.43;;;;;;;5.10;51.82;97314.59;4934602;29;20186;-73
2021/04/04 00:29:15;;;;;;;8.97;2.77;;;;;;;5.14;51.91;97308.06;4934992;29;20190;-73
2021/04/04 00:31:40;;;;;;;5.23;2.73;;;;;;;4.96;51.81;97300.63;4917130;29;20340;-72
2021/04/04 00:34:06;;;;;;;4.43;2.70;;;;;;;4.97;52.41;97304.03;4917019;29;20724;-72
2021/04/04 00:36:31;;;;;;;4.63;2.57;;;;;;;4.88;52.86;97308.50;4933778;29;20660;-72
2021/04/04 00:38:57;;;;;;;5.77;2.73;;;;;;;4.90;53.63;97310.94;4939460;29;20240;-72
2021/04/04 00:41:22;;;;;;;5.13;2.73;;;;;;;4.96;52.89;97311.00;4936346;29;20541;-73
2021/04/04 00:43:48;;;;;;;5.13;3.23;;;;;;;4.96;53.19;97307.59;4952991;29;20209;-72
2021/04/04 00:46:13;;;;;;;3.20;2.77;;;;;;;4.74;54.25;97300.69;4936180;29;20194;-73
2021/04/04 00:48:39;;;;;;;3.73;2.53;;;;;;;4.74;54.20;97311.06;4953074;29;20328;-73
2021/04/04 00:51:05;;;;;;;7.03;2.77;;;;;;;4.75;54.09;97310.09;4953713;29;20711;-73
2021/04/04 00:53:31;;;;;;;6.63;2.90;;;;;;;4.60;54.47;97312.66;4952941;29;20189;-71
2021/04/04 00:55:56;;;;;;;6.07;2.83;;;;;;;4.59;55.26;97313.63;4953913;29;20186;-73
2021/04/04 00:58:22;;;;;;;6.57;3.17;;;;;;;4.57;55.03;97308.63;4953355;29;20189;-73
2021/04/04 01:00:47;;;;;;;5.70;3.00;;;;;;;4.54;55.69;97305.56;4953130;29;20197;-73
2021/04/04 01:03:13;;;;;;;4.27;3.03;;;;;;;4.48;55.31;97303.69;4953635;29;20217;-73
2021/04/04 01:05:42;;;;;;;5.47;2.97;;;;;;;4.45;55.81;97298.84;4952927;29;20689;-73
2021/04/04 01:08:08;;;;;;;5.50;2.80;;;;;;;4.44;55.42;97299.81;4936610;29;20200;-75
2021/04/04 01:10:36;;;;;;;6.40;2.83;;;;;;;4.36;55.62;97292.91;4952542;29;20592;-73
2021/04/04 01:13:05;;;;;;;7.63;2.90;;;;;;;4.42;55.26;97299.19;4953402;29;20193;-72
2021/04/04 01:15:37;;;;;;;4.70;2.50;;;;;;;4.41;55.22;97293.19;4935212;29;20210;-69
2021/04/04 01:18:26;;;;;;;5.10;2.90;;;;;;;4.33;55.71;97297.66;4952368;29;20188;-73
2021/04/04 01:21:03;;;;;;;8.37;2.80;;;;;;;4.47;55.73;97294.28;4952598;29;20188;-73
2021/04/04 01:24:03;;;;;;;4.97;2.93;;;;;;;4.36;56.23;97298.09;4935826;29;20184;-69
2021/04/04 01:26:51;;;;;;;4.27;2.70;;;;;;;4.45;56.14;97299.66;4949718;29;20264;-70
2021/04/04 01:29:19;;;;;;;4.30;3.10;;;;;;;4.36;55.64;97294.69;4940748;29;20181;-73
2021/04/04 01:31:45;;;;;;;8.47;2.87;;;;;;;4.24;56.43;97301.28;4952522;29;20207;-74
2021/04/04 01:34:13;;;;;;;5.70;2.77;;;;;;;4.15;57.08;97303.13;4952472;29;20189;-75
2021/04/04 01:36:40;;;;;;;7.47;3.20;;;;;;;4.09;57.57;97302.03;4952018;29;20231;-74
2021/04/04 01:39:12;;;;;;;4.63;3.00;;;;;;;4.08;57.06;97304.78;4929148;29;20241;-74
2021/04/04 01:41:42;;;;;;;3.37;2.60;;;;;;;4.04;57.14;97300.94;4916022;29;20182;-74
2021/04/04 01:44:14;;;;;;;6.13;3.07;;;;;;;3.99;57.16;97296.28;4933682;29;20206;-74
2021/04/04 01:46:41;;;;;;;4.57;2.63;;;;;;;3.97;57.39;97300.00;4933376;29;20265;-74
2021/04/04 01:49:07;;;;;;;4.90;2.90;;;;;;;4.00;58.03;97297.91;4934422;29;20246;-74
2021/04/04 01:51:33;;;;;;;3.80;2.70;;;;;;;4.00;56.84;97294.50;4933105;29;20186;-72
2021/04/04 01:54:03;;;;;;;5.03;2.87;;;;;;;4.08;57.15;97295.22;4900849;29;20204;-74
2021/04/04 01:56:29;;;;;;;6.93;3.60;;;;;;;3.96;57.36;97296.59;4934084;29;20233;-70
2021/04/04 01:58:55;;;;;;;7.00;3.13;;;;;;;3.86;58.07;97292.63;4932924;29;20210;-74
2021/04/04 02:01:21;;;;;;;8.80;3.27;;;;;;;3.82;58.28;97291.38;4933849;29;20240;-74
2021/04/04 02:03:47;;;;;;;6.80;2.93;;;;;;;3.81;58.70;97292.34;4933113;29;20210;-74
2021/04/04 02:06:17;;;;;;;3.97;2.67;;;;;;;3.72;58.36;97284.63;4933127;29;20221;-74
2021/04/04 02:08:44;;;;;;;6.23;2.83;;;;;;;3.80;58.35;97281.16;4932854;29;20198;-73
2021/04/04 02:11:18;;;;;;;6.03;3.00;;;;;;;3.76;58.76;97279.91;4933604;29;20193;-74
2021/04/04 02:13:45;;;;;;;7.07;2.70;;;;;;;3.75;58.49;97286.06;4933139;29;20276;-75
2021/04/04 02:16:12;;;;;;;4.23;2.70;;;;;;;3.65;59.23;97283.69;4933296;29;20558;-73
2021/04/04 02:18:38;;;;;;;7.67;2.83;;;;;;;3.60;58.88;97275.63;4932666;29;20302;-73
2021/04/04 02:21:04;;;;;;;4.17;2.87;;;;;;;3.59;59.22;97278.38;4933128;29;20598;-73
2021/04/04 02:23:30;;;;;;;4.00;2.90;;;;;;;3.58;59.96;97271.56;4933159;29;20218;-69
2021/04/04 02:25:57;;;;;;;3.83;3.00;;;;;;;3.56;60.01;97276.13;4932930;29;20186;-73
2021/04/04 02:28:24;;;;;;;4.93;3.30;;;;;;;3.60;60.41;97270.44;4933361;29;20193;-73
2021/04/04 02:30:52;;;;;;;5.83;2.90;;;;;;;3.55;59.57;97264.97;4915858;29;20195;-73
2021/04/04 02:33:30;;;;;;;3.53;2.90;;;;;;;3.49;59.97;97268.22;4933319;29;20186;-72
2021/04/04 02:36:02;;;;;;;5.83;3.07;;;;;;;3.44;59.81;97275.69;4932922;29;20174;-73
2021/04/04 02:38:33;;;;;;;4.97;2.80;;;;;;;3.44;59.76;97270.53;4934394;29;20330;-72
2021/04/04 02:41:00;;;;;;;6.13;2.87;;;;;;;3.44;60.08;97272.31;4951698;29;20182;-73
2021/04/04 02:43:29;;;;;;;4.53;2.80;;;;;;;3.46;59.85;97272.91;4952240;29;20186;-72
2021/04/04 02:45:56;;;;;;;3.87;2.53;;;;;;;3.41;59.65;97272.63;4934899;29;20296;-74
2021/04/04 02:48:29;;;;;;;6.13;2.90;;;;;;;3.57;58.99;97275.94;4952282;29;20194;-75
2021/04/04 02:50:58;;;;;;;4.63;2.70;;;;;;;3.48;59.37;97270.97;4951285;29;20197;-70
2021/04/04 02:53:26;;;;;;;5.50;3.10;;;;;;;3.50;59.73;97271.63;4937389;29;20204;-72
2021/04/04 02:55:54;;;;;;;4.80;2.83;;;;;;;3.56;59.20;97268.34;4951691;28;20772;-75
2021/04/04 02:58:21;;;;;;;5.97;2.80;;;;;;;3.59;58.72;97273.19;4955229;29;20528;-73
2021/04/04 03:00:47;;;;;;;9.43;2.80;;;;;;;3.68;57.99;97278.16;4955174;29;20248;-73
2021/04/04 03:03:17;;;;;;;3.93;2.60;;;;;;;3.76;57.97;97270.34;4938137;29;20193;-72
2021/04/04 03:05:44;;;;;;;6.60;2.90;;;;;;;3.70;58.29;97273.59;4954663;29;20197;-72
2021/04/04 03:08:12;;;;;;;4.60;2.67;;;;;;;3.71;58.17;97266.63;4955541;29;20205;-73
2021/04/04 03:10:40;;;;;;;5.13;2.57;;;;;;;3.57;58.76;97273.34;4954450;29;20232;-72
2021/04/04 03:13:06;;;;;;;4.10;2.50;;;;;;;3.46;58.82;97267.75;4955269;29;20217;-71
2021/04/04 03:15:33;;;;;;;5.33;2.60;;;;;;;3.48;58.99;97268.38;4955505;29;20196;-69
2021/04/04 03:17:58;;;;;;;4.93;2.43;;;;;;;3.51;59.04;97268.06;4954684;29;20197;-73
2021/04/04 03:20:25;;;;;;;5.57;2.87;;;;;;;3.53;59.77;97274.69;4919284;29;20675;-73
2021/04/04 03:22:51;;;;;;;8.53;2.77;;;;;;;3.49;58.83;97270.81;4950148;29;20978;-74
2021/04/04 03:25:19;;;;;;;6.50;2.90;;;;;;;3.34;59.35;97277.69;4954931;29;20205;-71
2021/04/04 03:27:46;;;;;;;4.33;2.47;;;;;;;3.30;59.38;97272.03;4954471;29;20699;-74
2021/04/04 03:33:00;;;;;;;5.57;2.70;;;;;;;3.31;60.08;97275.44;4954969;29;20264;-74
2021/04/04 03:35:27;;;;;;;8.03;3.27;;;;;;;3.29;59.97;97273.00;4954349;29;20674;-73
2021/04/04 03:37:54;;;;;;;4.23;2.40;;;;;;;3.37;59.86;97279.13;4954306;29;20841;-73
2021/04/04 03:40:20;;;;;;;4.20;3.00;;;;;;;3.37;58.91;97276.53;4938648;29;20238;-73
2021/04/04 03:42:48;;;;;;;4.30;2.70;;;;;;;3.43;59.16;97281.84;4934992;29;20186;-74
2021/04/04 03:45:16;;;;;;;4.40;2.20;;;;;;;3.37;58.64;97277.34;4935504;29;20206;-74
2021/04/04 03:47:43;;;;;;;4.73;2.70;;;;;;;3.34;59.33;97269.94;4935265;29;20182;-74
2021/04/04 03:50:10;;;;;;;4.97;2.73;;;;;;;3.35;59.50;97276.69;4935570;29;20628;-73
2021/04/04 03:52:37;;;;;;;4.50;2.70;;;;;;;3.28;59.71;97273.19;4935058;29;20193;-69
2021/04/04 03:55:03;;;;;;;5.00;2.63;;;;;;;3.18;60.22;97273.38;4935189;29;20189;-74
2021/04/04 03:57:29;;;;;;;5.83;2.73;;;;;;;3.22;59.96;97269.50;4935538;29;20229;-73
2021/04/04 03:59:56;;;;;;;5.30;2.90;;;;;;;3.21;60.74;97270.47;4934980;29;20181;-74
2021/04/04 04:02:24;;;;;;;3.90;2.77;;;;;;;3.17;60.46;97274.38;4935496;29;20186;-74
2021/04/04 04:04:51;;;;;;;6.83;3.00;;;;;;;3.14;60.45;97274.69;4934305;29;20209;-71
2021/04/04 04:07:19;;;;;;;5.97;2.80;;;;;;;3.16;60.84;97271.94;4918153;29;20227;-74
2021/04/04 04:09:46;;;;;;;3.87;2.63;;;;;;;3.30;59.90;97273.81;4933603;29;20182;-74
2021/04/04 04:12:13;;;;;;;10.67;2.70;;;;;;;3.31;59.60;97278.84;4918039;29;20629;-74
2021/04/04 04:14:39;;;;;;;4.20;2.63;;;;;;;3.28;59.03;97273.19;4934272;29;20696;-74
2021/04/04 04:17:05;;;;;;;4.07;2.53;;;;;;;3.33;59.29;97271.72;4934686;29;20185;-74
2021/04/04 04:19:31;;;;;;;3.20;2.40;;;;;;;3.31;59.23;97270.25;4918030;29;20265;-75
2021/04/04 04:21:58;;;;;;;5.33;2.83;;;;;;;3.29;59.42;97262.63;4933680;29;20591;-75
2021/04/04 04:24:25;;;;;;;6.17;2.73;;;;;;;3.30;59.24;97261.66;4935002;29;20288;-75
2021/04/04 04:26:50;;;;;;;5.03;3.30;;;;;;;3.28;59.76;97266.22;4934176;29;20181;-75
2021/04/04 04:29:18;;;;;;;6.40;3.20;;;;;;;3.25;60.02;97266.56;4918076;29;20640;-75
2021/04/04 04:31:46;;;;;;;7.47;2.47;;;;;;;3.23;60.80;97265.13;4916832;29;20555;-75
2021/04/04 04:34:12;;;;;;;8.70;3.00;;;;;;;3.21;60.81;97267.06;4934682;29;20174;-74
2021/04/04 04:36:39;;;;;;;5.23;2.73;;;;;;;3.24;60.16;97259.75;4933453;29;20224;-71
2021/04/04 04:39:07;;;;;;;6.63;2.40;;;;;;;3.21;60.02;97256.69;4933598;29;20673;-74
2021/04/04 04:41:35;;;;;;;5.53;2.73;;;;;;;3.20;60.17;97258.47;4934781;29;20182;-74
2021/04/04 04:44:05;;;;;;;6.13;2.80;;;;;;;3.36;59.96;97262.78;4934538;29;20206;-75
2021/04/04 04:46:32;;;;;;;5.77;2.83;;;;;;;3.29;59.61;97256.66;4934608;29;20522;-76
2021/04/04 04:49:00;;;;;;;4.50;2.47;;;;;;;3.42;58.75;97254.31;4934053;29;20198;-75
2021/04/04 04:51:26;;;;;;;6.20;2.57;;;;;;;3.30;59.46;97255.69;4934211;29;20178;-72
2021/04/04 04:53:51;;;;;;;4.80;2.63;;;;;;;3.50;58.84;97261.25;4933562;29;20266;-72
2021/04/04 04:56:18;;;;;;;5.13;2.53;;;;;;;3.41;59.17;97265.66;4934705;29;20277;-72
2021/04/04 04:58:43;;;;;;;3.83;2.50;;;;;;;3.47;59.23;97267.59;4933899;29;20182;-72
2021/04/04 05:01:23;;;;;;;4.77;2.73;;;;;;;3.16;60.09;97264.97;4934233;29;20193;-72
2021/04/04 05:03:49;;;;;;;3.07;2.50;;;;;;;3.20;59.75;97271.44;4933775;29;20186;-73
2021/04/04 05:06:15;;;;;;;5.10;2.53;;;;;;;3.05;60.60;97269.72;4917288;29;20515;-73
2021/04/04 05:08:45;;;;;;;7.10;2.53;;;;;;;2.94;61.96;97268.31;4933679;29;20202;-73
2021/04/04 05:11:13;;;;;;;3.20;2.67;;;;;;;3.05;61.57;97267.94;4934165;29;20210;-74
2021/04/04 05:13:42;;;;;;;4.37;3.00;;;;;;;3.11;61.64;97269.06;4933804;29;20197;-69
2021/04/04 05:16:10;;;;;;;7.57;2.90;;;;;;;3.27;61.37;97264.63;4933861;29;20185;-74
2021/04/04 05:18:36;;;;;;;6.67;3.40;;;;;;;3.35;61.40;97264.56;4934286;29;20193;-70
2021/04/04 05:21:02;;;;;;;5.97;3.20;;;;;;;3.41;61.24;97268.25;4933228;29;20286;-73
2021/04/04 05:23:27;;;;;;;5.90;3.13;;;;;;;3.67;60.49;97266.19;4948535;29;20227;-74
2021/04/04 05:25:54;;;;;;;6.87;3.00;;;;;;;3.86;60.17;97262.31;4933032;29;20198;-73
2021/04/04 05:28:19;;;;;;;6.53;3.40;;;;;;;4.00;60.22;97264.19;4934618;29;20269;-74
2021/04/04 05:30:45;;;;;;;6.43;3.33;;;;;;;4.16;59.69;97265.84;4933340;29;20281;-74
2021/04/04 05:33:11;;;;;;;5.83;3.37;;;;;;;4.37;59.56;97263.38;4933708;29;20232;-76
2021/04/04 05:35:39;;;;;;;5.67;3.33;;;;;;;4.62;58.12;97268.38;4921927;29;20194;-71
2021/04/04 05:38:06;;;;;;;5.10;2.90;;;;;;;4.58;57.79;97267.91;4934020;29;20266;-71
2021/04/04 05:40:32;;;;;;;4.13;2.70;;;;;;;4.42;58.30;97268.84;4950551;29;20583;-71
2021/04/04 05:43:05;;;;;;;4.27;2.70;;;;;;;4.61;57.40;97267.56;4952548;29;20256;-78
2021/04/04 05:45:45;;;;;;;4.77;2.90;;;;;;;4.66;57.78;97262.63;4935650;29;20212;-78
2021/04/04 05:48:33;;;;;;;4.37;2.83;;;;;;;4.76;57.52;97265.78;4952683;29;20184;-78
2021/04/04 05:51:35;;;;;;;7.30;3.40;;;;;;;4.81;57.48;97265.22;4951759;29;20748;-77
2021/04/04 05:54:16;;;;;;;7.23;3.90;;;;;;;4.93;57.41;97263.81;4952025;29;20192;-77
2021/04/04 05:56:47;;;;;;;4.77;3.57;;;;;;;5.26;56.42;97269.44;4952069;29;20169;-76
2021/04/04 05:59:47;;;;;;;7.30;4.40;;;;;;;5.25;57.80;97260.84;4952691;29;20274;-77
2021/04/04 06:02:26;;;;;;;8.43;4.83;;;;;;;5.54;57.22;97261.78;4935800;29;20244;-75
2021/04/04 06:05:01;;;;;;;7.13;5.03;;;;;;;5.68;56.83;97260.94;4951538;29;20209;-73
2021/04/04 06:08:04;;;;;;;7.17;5.13;;;;;;;5.83;56.55;97257.31;4952930;29;20196;-75
2021/04/04 06:10:43;;;;;;;8.73;4.00;;;;;;;5.96;55.95;97267.06;4952652;29;20185;-73
2021/04/04 06:13:39;;;;;;;6.07;4.13;;;;;;;6.08;55.28;97260.34;4952277;29;20231;-74
2021/04/04 06:16:19;;;;;;;5.03;3.10;;;;;;;6.25;53.17;97266.91;4952176;29;20181;-75
2021/04/04 06:18:53;;;;;;;4.93;3.03;;;;;;;5.98;53.23;97266.88;4951939;29;20644;-76
2021/04/04 06:21:48;;;;;;;6.00;3.20;;;;;;;6.08;53.55;97265.56;4952541;29;20177;-73
2021/04/04 06:24:39;;;;;;;5.17;3.33;;;;;;;6.25;52.60;97260.91;4930670;29;20212;-75
2021/04/04 06:27:10;;;;;;;4.67;3.20;;;;;;;6.39;52.95;97267.03;4952643;29;20174;-75
2021/04/04 06:30:01;;;;;;;7.70;3.53;;;;;;;6.46;52.82;97262.69;4952160;29;20518;-73
2021/04/04 06:32:43;;;;;;;7.03;3.80;;;;;;;6.65;52.90;97262.03;4955008;28;20225;-75
2021/04/04 06:35:39;;;;;;;9.77;4.03;;;;;;;6.82;53.89;97259.94;4940792;29;20181;-75
2021/04/04 06:38:11;;;;;;;8.13;4.90;;;;;;;6.98;53.13;97262.22;4914416;29;20239;-73
2021/04/04 06:41:20;;;;;;;10.40;5.77;;;;;;;6.96;54.68;97253.81;4955581;29;20225;-73
2021/04/04 06:44:07;;;;;;;8.80;5.75;;;;;;;6.87;55.06;97252.34;4866585;29;20425;-72
2021/04/04 06:47:06;;;;;;;6.63;5.23;;;;;;;6.97;54.36;97252.78;4878174;29;20203;-74
2021/04/04 06:50:01;;;;;;;7.77;5.50;;;;;;;7.03;54.17;97254.63;4935808;29;20202;-70
2021/04/04 06:52:36;;;;;;;8.47;5.23;;;;;;;7.15;53.92;97258.31;4955717;29;20544;-71
2021/04/04 06:55:10;;;;;;;8.57;5.33;;;;;;;7.30;53.43;97261.59;4954699;29;20323;-71
2021/04/04 06:58:09;;;;;;;6.67;4.70;;;;;;;7.45;53.03;97257.06;4955963;29;20220;-73
2021/04/04 07:00:39;;;;;;;7.70;4.87;;;;;;;7.30;53.59;97263.41;4950566;29;20205;-72
2021/04/04 07:03:07;;;;;;;7.43;4.93;;;;;;;7.47;52.70;97262.06;4955119;29;20644;-71
2021/04/04 07:05:39;;;;;;;10.50;4.77;;;;;;;7.62;51.69;97261.94;4955697;29;20213;-72
2021/04/04 07:08:54;;;;;;;8.00;4.13;;;;;;;7.76;51.38;97272.19;4955037;29;20197;-71
2021/04/04 07:11:25;;;;;;;10.57;5.03;;;;;;;7.74;51.03;97270.81;4943821;29;20188;-71
2021/04/04 07:14:14;;;;;;;7.93;5.23;;;;;;;7.46;51.76;97261.28;4954591;29;20682;-72
2021/04/04 07:17:17;;;;;;;9.63;5.00;;;;;;;7.84;51.68;97268.63;4954314;29;20571;-70
2021/04/04 07:20:18;;;;;;;6.93;4.63;;;;;;;7.40;53.11;97264.66;4954948;29;20282;-70
2021/04/04 07:23:21;;;;;;;7.77;5.27;;;;;;;7.29;54.24;97270.44;4954185;29;20268;-70
2021/04/04 07:26:03;;;;;;;8.23;5.17;;;;;;;7.52;53.65;97268.28;4954435;29;20216;-70
2021/04/04 07:28:50;;;;;;;7.53;4.57;;;;;;;7.42;52.93;97267.06;4952065;29;20205;-70
2021/04/04 07:31:19;;;;;;;8.70;4.33;;;;;;;7.50;52.55;97269.50;4942321;29;20189;-71
2021/04/04 07:34:11;;;;;;;7.00;5.03;;;;;;;7.15;54.32;97266.13;4954865;29;20181;-70
2021/04/04 07:36:53;;;;;;;6.17;4.87;;;;;;;7.16;54.22;97272.16;4954485;29;20260;-70
2021/04/04 07:39:27;;;;;;;7.33;5.00;;;;;;;6.85;55.60;97273.41;4937442;29;20348;-68
2021/04/04 07:42:16;;;;;;;7.23;4.97;;;;;;;7.02;54.32;97276.50;4954679;28;20207;-66
2021/04/04 07:45:06;;;;;;;4.87;4.40;;;;;;;7.12;54.33;97278.75;4955010;29;20200;-65
2021/04/04 07:47:42;;;;;;;9.40;4.70;;;;;;;7.12;53.14;97276.16;4954865;29;20173;-66
2021/04/04 07:50:21;;;;;;;6.40;4.10;;;;;;;6.94;53.26;97282.66;4954613;29;20213;-66
2021/04/04 07:53:07;;;;;;;7.17;4.63;;;;;;;6.77;55.34;97280.53;4954454;29;20178;-66
2021/04/04 07:55:46;;;;;;;9.53;4.90;;;;;;;7.06;54.31;97273.31;4937474;29;20680;-66
2021/04/04 07:58:35;;;;;;;7.13;4.57;;;;;;;7.14;53.25;97279.34;4944696;29;20182;-66
2021/04/04 08:01:04;;;;;;;9.97;5.13;;;;;;;7.12;53.44;97282.19;4953852;29;20173;-65
2021/04/04 08:03:37;;;;;;;9.70;4.70;;;;;;;6.93;53.58;97291.47;4954734;29;20185;-65
2021/04/04 08:06:10;;;;;;;7.73;4.47;;;;;;;7.13;53.03;97277.78;4953829;29;20264;-64
2021/04/04 08:09:13;;;;;;;9.83;4.63;;;;;;;7.24;52.95;97279.84;4954612;29;20237;-65
2021/04/04 08:11:53;;;;;;;8.30;4.23;;;;;;;7.27;52.38;97289.84;4953692;29;20320;-66
2021/04/04 08:14:25;;;;;;;6.60;4.27;;;;;;;7.49;52.38;97279.13;4937304;29;20180;-68
2021/04/04 08:16:57;;;;;;;8.77;4.97;;;;;;;7.57;51.54;97280.78;4953252;29;20188;-66
2021/04/04 08:19:25;;;;;;;7.57;5.27;;;;;;;7.17;52.57;97277.19;4954380;29;20186;-65
2021/04/04 08:21:54;;;;;;;8.70;4.53;;;;;;;7.24;52.51;97283.25;4953612;29;20181;-65
2021/04/04 08:24:44;;;;;;;8.97;4.80;;;;;;;7.30;52.26;97279.84;4954488;29;20214;-66
2021/04/04 08:27:25;;;;;;;8.53;4.37;;;;;;;7.51;51.58;97279.75;4954066;29;20213;-66
2021/04/04 08:29:59;;;;;;;8.30;4.70;;;;;;;7.49;52.28;97271.31;4939309;29;20187;-66
2021/04/04 08:32:45;;;;;;;8.20;4.33;;;;;;;7.73;51.32;97275.22;4954384;29;20181;-64
2021/04/04 08:35:15;;;;;;;8.13;4.00;;;;;;;7.98;50.83;97275.47;4954157;29;20189;-66
2021/04/04 08:37:47;;;;;;;6.47;4.17;;;;;;;8.10;50.09;97275.69;4950930;29;20224;-64
2021/04/04 08:40:15;;;;;;;7.37;4.90;;;;;;;8.35;51.24;97274.16;4938388;29;20256;-63
2021/04/04 08:42:43;;;;;;;8.63;4.57;;;;;;;8.34;49.97;97262.91;4934922;29;20197;-65
2021/04/04 08:45:15;;;;;;;7.77;4.50;;;;;;;8.07;50.60;97278.69;4934358;29;20218;-65
2021/04/04 08:47:45;;;;;;;9.70;4.60;;;;;;;8.10;50.06;97278.28;4934680;29;20221;-64
2021/04/04 08:50:16;;;;;;;6.33;4.10;;;;;;;8.16;49.94;97282.72;4934659;29;20182;-65
2021/04/04 08:52:50;;;;;;;8.00;4.10;;;;;;;8.32;49.50;97269.31;4934384;29;20645;-64
2021/04/04 08:55:23;;;;;;;6.73;4.13;;;;;;;8.39;48.75;97272.75;4933906;29;20194;-68
2021/04/04 08:57:50;;;;;;;10.33;4.47;;;;;;;8.34;49.12;97272.53;4929722;29;20222;-65
2021/04/04 09:00:19;;;;;;;5.37;3.70;;;;;;;7.95;50.25;97275.88;4930717;29;20315;-66
2021/04/04 09:03:04;;;;;;;6.17;3.73;;;;;;;8.40;49.67;97269.13;4933552;29;20186;-64
2021/04/04 09:05:33;;;;;;;6.20;3.80;;;;;;;8.70;48.97;97272.13;4934092;29;20277;-65
2021/04/04 09:08:01;;;;;;;6.67;4.43;;;;;;;8.65;48.29;97269.31;4916406;29;20644;-65
2021/04/04 09:10:37;;;;;;;6.63;4.10;;;;;;;8.46;48.14;97268.34;4934001;29;20616;-64
2021/04/04 09:13:08;;;;;;;5.77;4.03;;;;;;;8.74;48.05;97275.94;4932980;29;20223;-65
2021/04/04 09:15:45;;;;;;;8.70;4.13;;;;;;;8.74;47.64;97266.31;4933722;29;20187;-66
2021/04/04 09:18:10;;;;;;;6.27;3.60;;;;;;;8.55;46.62;97261.06;4933980;29;20193;-64
2021/04/04 09:20:44;;;;;;;6.40;3.57;;;;;;;8.54;46.46;97264.69;4913733;29;20190;-64
2021/04/04 09:23:12;;;;;;;6.67;3.60;;;;;;;8.68;46.59;97267.13;4932983;29;20237;-64
2021/04/04 09:25:48;;;;;;;3.93;3.53;;;;;;;8.74;46.87;97261.09;4933772;29;20251;-64
2021/04/04 09:28:15;;;;;;;6.03;3.20;;;;;;;8.57;46.88;97254.66;4932949;29;20178;-63
2021/04/04 09:30:43;;;;;;;6.30;2.40;;;;;;;8.63;45.81;97258.28;4928781;29;20252;-64
2021/04/04 09:33:11;;;;;;;8.63;3.23;;;;;;;8.80;44.82;97259.47;4924952;29;20179;-65
2021/04/04 09:35:42;;;;;;;94.17;80.60;;;;;;;9.07;44.09;97258.41;4916555;29;20637;-63
2021/04/04 09:38:13;;;;;;;182.17;167.17;;;;;;;9.16;42.49;97264.19;4931765;29;20324;-63
2021/04/04 09:40:41;;;;;;;44.40;39.27;;;;;;;9.08;41.92;97256.59;4950663;29;20233;-64
2021/04/04 09:43:10;;;;;;;9.40;8.60;;;;;;;9.36;40.61;97251.06;4934217;29;20284;-63
2021/04/04 09:45:37;;;;;;;48.40;40.93;;;;;;;9.71;40.38;97259.34;4952738;29;20240;-63
2021/04/04 09:48:20;;;;;;;3.20;2.67;;;;;;;9.64;39.35;97256.75;4934947;29;20551;-63
2021/04/04 09:50:47;;;;;;;3.50;1.93;;;;;;;9.84;40.32;97261.91;4952149;29;20193;-63
2021/04/04 09:53:13;;;;;;;5.93;3.23;;;;;;;10.27;39.76;97251.59;4952778;29;20185;-65
2021/04/04 09:55:45;;;;;;;6.63;3.03;;;;;;;10.39;40.57;97253.31;4952651;29;20525;-65
2021/04/04 09:58:11;;;;;;;7.70;2.60;;;;;;;10.05;40.79;97248.50;4952232;29;20679;-64
2021/04/04 10:00:45;;;;;;;5.93;2.70;;;;;;;10.10;41.22;97245.22;4940255;29;20202;-64
2021/04/04 10:03:11;;;;;;;4.30;3.13;;;;;;;10.04;40.62;97246.88;4950654;29;20538;-64
2021/04/04 10:05:40;;;;;;;6.63;3.10;;;;;;;9.37;40.71;97243.00;4953337;28;20197;-70
2021/04/04 10:08:15;;;;;;;3.93;3.10;;;;;;;9.30;43.01;97241.44;4938210;29;20188;-70
2021/04/04 10:10:43;;;;;;;5.83;3.60;;;;;;;9.12;43.71;97231.63;4953258;29;20190;-64
2021/04/04 10:13:09;;;;;;;12.00;3.77;;;;;;;9.18;42.77;97239.47;4947517;29;20201;-64
2021/04/04 10:15:48;;;;;;;9.77;3.57;;;;;;;8.93;43.38;97241.13;4949343;29;20181;-64
2021/04/04 10:18:18;;;;;;;5.50;3.40;;;;;;;8.82;42.75;97241.75;4938131;29;20178;-64
2021/04/04 10:20:55;;;;;;;5.80;3.50;;;;;;;8.58;42.94;97243.19;4955610;29;20192;-64
2021/04/04 10:23:34;;;;;;;4.27;2.70;;;;;;;8.62;42.77;97230.53;4955527;29;20189;-64
2021/04/04 10:25:59;;;;;;;6.13;3.40;;;;;;;8.88;43.81;97232.28;4954872;29;20252;-64
2021/04/04 10:28:43;;;;;;;6.17;3.13;;;;;;;9.06;42.94;97230.66;4955833;29;20205;-63
2021/04/04 10:31:09;;;;;;;8.25;3.22;;;;;;;9.19;43.10;97230.59;4951533;29;20485;-67
2021/04/04 10:33:35;;;;;;;5.87;3.20;;;;;;;9.31;41.76;97220.28;4937574;29;20930;-64
2021/04/04 10:36:17;;;;;;;4.07;3.23;;;;;;;9.18;41.89;97222.97;4954880;29;20192;-64
2021/04/04 10:38:43;;;;;;;4.80;3.70;;;;;;;9.07;41.69;97219.19;4934645;29;20244;-64
2021/04/04 10:41:09;;;;;;;4.83;3.20;;;;;;;9.33;42.25;97213.03;4935778;29;20293;-64
2021/04/04 10:43:37;;;;;;;4.00;3.10;;;;;;;9.57;42.06;97214.94;4935627;29;20276;-64
2021/04/04 10:46:11;;;;;;;4.07;2.70;;;;;;;9.76;40.91;97213.22;4935461;29;20202;-64
2021/04/04 10:48:45;;;;;;;4.20;3.50;;;;;;;9.77;40.08;97211.41;4919225;29;20190;-64
2021/04/04 10:51:12;;;;;;;6.03;2.70;;;;;;;9.66;40.27;97206.84;4935339;29;20183;-64
2021/04/04 10:53:39;;;;;;;6.90;4.10;;;;;;;9.64;39.47;97208.88;4936223;29;20214;-64
2021/04/04 10:56:05;;;;;;;2.87;2.47;;;;;;;9.55;38.41;97210.91;4935424;29;20186;-65
2021/04/04 10:58:31;;;;;;;3.33;2.20;;;;;;;9.38;38.92;97210.59;4936086;29;20237;-66
2021/04/04 11:00:59;;;;;;;3.23;2.43;;;;;;;9.58;37.77;97203.44;4935724;29;20197;-67
2021/04/04 11:03:25;;;;;;;3.53;2.60;;;;;;;9.39;38.24;97206.19;4919118;29;20194;-67
2021/04/04 11:05:51;;;;;;;3.17;2.37;;;;;;;9.46;37.29;97205.16;4918446;29;20611;-65
2021/04/04 11:08:17;;;;;;;1.83;1.73;;;;;;;9.29;37.65;97203.22;4936126;29;20178;-66
2021/04/04 11:10:44;;;;;;;3.33;2.30;;;;;;;9.65;37.64;97195.56;4921177;29;20563;-67
2021/04/04 11:13:12;;;;;;;6.17;2.77;;;;;;;9.88;37.28;97197.63;4934929;29;20170;-66
2021/04/04 11:15:41;;;;;;;2.60;1.80;;;;;;;10.01;36.19;97189.69;4936578;29;20288;-67
2021/04/04 11:18:38;;;;;;;2.37;2.17;;;;;;;9.90;36.85;97188.56;4917824;29;20179;-66
2021/04/04 11:21:07;;;;;;;2.63;2.20;;;;;;;9.86;37.35;97194.44;4921093;29;20202;-64
2021/04/04 11:23:36;;;;;;;3.93;2.60;;;;;;;9.52;37.97;97187.81;4936289;29;20209;-66
2021/04/04 11:26:21;;;;;;;3.77;2.23;;;;;;;9.45;37.02;97184.41;4935293;29;20210;-66
2021/04/04 11:29:06;;;;;;;4.20;2.43;;;;;;;9.55;38.06;97190.00;4919109;29;20184;-65
2021/04/04 11:31:32;;;;;;;3.73;3.00;;;;;;;9.25;39.07;97187.09;4935896;29;20686;-67
2021/04/04 11:34:32;;;;;;;3.50;2.47;;;;;;;9.18;39.61;97189.78;4930426;29;20190;-67
2021/04/04 11:37:04;;;;;;;4.80;3.07;;;;;;;9.47;38.71;97179.78;4933897;29;20175;-67
2021/04/04 11:39:29;;;;;;;4.53;3.20;;;;;;;9.43;39.24;97176.75;4934463;29;20234;-66
2021/04/04 11:41:57;;;;;;;4.70;2.60;;;;;;;9.74;39.09;97173.38;4934195;29;20258;-66
2021/04/04 11:44:27;;;;;;;7.40;2.37;;;;;;;9.75;38.37;97174.19;4934953;29;20669;-67
2021/04/04 11:47:04;;;;;;;2.93;2.60;;;;;;;10.09;37.53;97165.84;4934813;29;20640;-67
2021/04/04 11:49:37;;;;;;;6.40;3.00;;;;;;;9.82;38.89;97169.69;4935971;29;20180;-67
2021/04/04 11:52:08;;;;;;;4.70;2.63;;;;;;;9.59;39.10;97162.38;4934730;29;20633;-67
2021/04/04 11:54:46;;;;;;;6.10;3.20;;;;;;;9.85;39.65;97154.38;4934645;29;20220;-67
2021/04/04 11:57:17;;;;;;;6.20;3.23;;;;;;;9.80;39.40;97156.03;4935493;29;20193;-67
2021/04/04 11:59:43;;;;;;;4.53;2.80;;;;;;;9.79;39.57;97146.56;4935687;29;20187;-68
2021/04/04 12:02:10;;;;;;;4.73;2.97;;;;;;;9.74;39.72;97149.03;4935041;29;20194;-68
2021/04/04 12:04:47;;;;;;;5.17;2.97;;;;;;;9.51;39.72;97146.94;4935393;29;20217;-67
2021/04/04 12:07:15;;;;;;;5.13;3.03;;;;;;;9.85;39.40;97143.09;4932422;29;20206;-67